Time;durP1;ratioP1;P1;durP2;ratioP2;P2;SDS_P1;SDS_P2;PMS_P1;PMS_P2;Temp;Humidity;BMP_temperature;BMP_pressure;BME280_temperature;BME280_humidity;BME280_pressure;Samples;Min_cycle;Max_cycle;Signal;HPM_P1;HPM_P2
2022/02/20 00:02:10;;;;;;;;;;;;;;;21.33;39.31;100296.66;4859933;29;4194;-63
2022/02/20 00:04:40;;;;;;;;;;;;;;;21.33;39.40;100285.16;4861024;29;4624;-63
2022/02/20 00:07:06;;;;;;;;;;;;;;;21.32;39.45;100282.94;4877583;29;4198;-62
2022/02/20 00:09:33;;;;;;;;;;;;;;;21.32;39.37;100277.16;4863224;29;4557;-63
2022/02/20 00:11:59;;;;;;;;;;;;;;;21.31;39.36;100273.56;4861112;29;4106;-63
2022/02/20 00:14:35;;;;;;;;;;;;;;;21.32;39.40;100272.16;4859167;29;4090;-63
2022/02/20 00:17:16;;;;;;;;;;;;;;;21.32;39.36;100268.53;4859465;29;4521;-62
2022/02/20 00:19:44;;;;;;;;;;;;;;;21.32;39.54;100263.50;4863109;29;4140;-63
2022/02/20 00:22:10;;;;;;;;;;;;;;;21.33;39.52;100262.13;4862913;29;4256;-63
2022/02/20 00:24:37;;;;;;;;;;;;;;;21.34;39.44;100268.59;4856732;29;4415;-63
2022/02/20 00:27:19;;;;;;;;;;;;;;;21.33;39.54;100250.59;4856449;29;4176;-63
2022/02/20 00:29:48;;;;;;;;;;;;;;;21.33;39.53;100249.88;4876109;29;5337;-62
2022/02/20 00:32:15;;;;;;;;;;;;;;;21.31;39.63;100241.88;4862726;29;4580;-62
2022/02/20 00:34:41;;;;;;;;;;;;;;;21.32;39.63;100249.09;4860193;29;4134;-63
2022/02/20 00:37:09;;;;;;;;;;;;;;;21.31;39.46;100241.16;4862621;29;4855;-64
2022/02/20 00:39:36;;;;;;;;;;;;;;;21.31;39.64;100238.28;4866110;29;4549;-63
2022/02/20 00:42:02;;;;;;;;;;;;;;;21.32;39.63;100237.59;4863480;29;4239;-63
2022/02/20 00:44:28;;;;;;;;;;;;;;;21.34;39.75;100228.28;4868435;29;4201;-62
2022/02/20 00:46:55;;;;;;;;;;;;;;;21.33;39.96;100226.81;4867220;29;4168;-63
2022/02/20 00:49:21;;;;;;;;;;;;;;;21.34;39.71;100211.75;4877061;29;4294;-64
2022/02/20 00:51:47;;;;;;;;;;;;;;;21.33;39.77;100210.28;4864203;29;4316;-63
2022/02/20 00:54:14;;;;;;;;;;;;;;;21.34;39.70;100211.00;4862354;29;5332;-63
2022/02/20 00:56:40;;;;;;;;;;;;;;;21.33;39.96;100204.50;4868313;29;4318;-64
2022/02/20 00:59:07;;;;;;;;;;;;;;;21.32;39.83;100197.28;4865100;29;4509;-63
2022/02/20 01:01:33;;;;;;;;;;;;;;;21.30;39.83;100200.09;4879937;29;4199;-63
2022/02/20 01:04:00;;;;;;;;;;;;;;;21.30;39.91;100191.47;4863345;29;4244;-64
2022/02/20 01:06:27;;;;;;;;;;;;;;;21.30;40.03;100182.84;4866433;29;4313;-64
2022/02/20 01:08:53;;;;;;;;;;;;;;;21.31;40.12;100177.81;4864074;29;4110;-63
2022/02/20 01:11:19;;;;;;;;;;;;;;;21.31;39.89;100172.78;4864907;29;4327;-64
2022/02/20 01:13:46;;;;;;;;;;;;;;;21.31;40.10;100172.78;4883331;29;5449;-63
2022/02/20 01:16:12;;;;;;;;;;;;;;;21.31;39.94;100167.00;4879936;29;4388;-64
2022/02/20 01:18:39;;;;;;;;;;;;;;;21.32;40.03;100164.88;4862230;29;5435;-63
2022/02/20 01:21:05;;;;;;;;;;;;;;;21.30;40.00;100159.78;4881456;29;4081;-63
2022/02/20 01:23:31;;;;;;;;;;;;;;;21.30;40.09;100148.28;4863928;29;4320;-63
2022/02/20 01:25:58;;;;;;;;;;;;;;;21.29;40.20;100149.66;4867713;29;5216;-63
2022/02/20 01:28:24;;;;;;;;;;;;;;;21.29;40.01;100141.03;4865093;29;6273;-64
2022/02/20 01:30:51;;;;;;;;;;;;;;;21.30;39.95;100130.25;4864641;29;4367;-63
2022/02/20 01:33:17;;;;;;;;;;;;;;;21.30;40.08;100131.00;4860545;29;4216;-63
2022/02/20 01:35:44;;;;;;;;;;;;;;;21.29;40.04;100120.88;4878010;29;4203;-63
2022/02/20 01:38:10;;;;;;;;;;;;;;;21.29;40.17;100118.00;4880318;29;4147;-63
2022/02/20 01:40:37;;;;;;;;;;;;;;;21.30;40.18;100112.97;4869549;29;4686;-63
2022/02/20 01:43:10;;;;;;;;;;;;;;;21.29;40.38;100106.47;4847950;29;4272;-63
2022/02/20 01:45:38;;;;;;;;;;;;;;;21.29;40.15;100097.09;4863254;29;4550;-63
2022/02/20 01:48:05;;;;;;;;;;;;;;;21.28;40.12;100098.50;4881428;29;5296;-63
2022/02/20 01:50:31;;;;;;;;;;;;;;;21.28;40.20;100086.97;4875213;29;4255;-64
2022/02/20 01:52:58;;;;;;;;;;;;;;;21.28;40.20;100084.88;4879380;29;4141;-63
2022/02/20 01:55:24;;;;;;;;;;;;;;;21.29;40.18;100077.69;4869377;29;4216;-64
2022/02/20 01:58:03;;;;;;;;;;;;;;;21.29;40.15;100069.03;4884153;29;4148;-63
2022/02/20 02:00:34;;;;;;;;;;;;;;;21.29;40.14;100060.41;4863619;29;4155;-63
2022/02/20 02:03:21;;;;;;;;;;;;;;;21.29;40.34;100059.69;4868097;29;4163;-64
2022/02/20 02:05:55;;;;;;;;;;;;;;;21.30;40.28;100061.13;4880777;29;4208;-63
2022/02/20 02:08:22;;;;;;;;;;;;;;;21.29;40.36;100060.41;4876377;29;4447;-63
2022/02/20 02:11:09;;;;;;;;;;;;;;;21.28;40.26;100058.94;4872716;29;4625;-63
2022/02/20 02:13:44;;;;;;;;;;;;;;;21.29;40.26;100048.16;4882857;29;4342;-63
2022/02/20 02:16:24;;;;;;;;;;;;;;;21.27;40.49;100031.53;4872084;29;5572;-64
2022/02/20 02:19:02;;;;;;;;;;;;;;;21.28;40.39;100027.28;4869279;29;4249;-64
2022/02/20 02:21:37;;;;;;;;;;;;;;;21.29;40.38;100028.72;4865744;29;4171;-64
2022/02/20 02:24:13;;;;;;;;;;;;;;;21.31;40.40;100016.53;4868006;29;4079;-63
2022/02/20 02:26:48;;;;;;;;;;;;;;;21.30;40.46;100015.06;4882535;29;4769;-63
2022/02/20 02:29:31;;;;;;;;;;;;;;;21.30;40.36;100007.19;4864127;29;4356;-63
2022/02/20 02:31:57;;;;;;;;;;;;;;;21.30;40.51;100015.81;4866269;29;5394;-63
2022/02/20 02:34:24;;;;;;;;;;;;;;;21.29;40.54;100008.56;4877582;29;4154;-63
2022/02/20 02:36:53;;;;;;;;;;;;;;;21.28;40.58;99995.59;4879934;29;4167;-63
2022/02/20 02:39:20;;;;;;;;;;;;;;;21.28;40.31;99995.59;4879687;29;4273;-63
2022/02/20 02:41:46;;;;;;;;;;;;;;;21.28;40.39;99989.84;4882326;29;4241;-64
2022/02/20 02:44:13;;;;;;;;;;;;;;;21.28;40.57;99989.09;4884291;29;4235;-63
2022/02/20 02:46:39;;;;;;;;;;;;;;;21.29;40.46;99994.19;4868581;29;4163;-63
2022/02/20 02:49:07;;;;;;;;;;;;;;;21.30;40.50;99980.50;4869385;29;4212;-63
2022/02/20 02:51:34;;;;;;;;;;;;;;;21.29;40.50;99979.06;4878286;29;4440;-63
2022/02/20 02:54:03;;;;;;;;;;;;;;;21.29;40.64;99985.53;4868951;29;4199;-63
2022/02/20 02:56:29;;;;;;;;;;;;;;;21.25;40.47;99967.41;4881218;29;4323;-63
2022/02/20 02:58:55;;;;;;;;;;;;;;;21.28;40.59;99968.94;4865678;29;4266;-63
2022/02/20 03:01:22;;;;;;;;;;;;;;;21.27;40.67;99964.59;4884357;29;5326;-63
2022/02/20 03:03:49;;;;;;;;;;;;;;;21.27;40.59;99959.56;4880226;29;4202;-63
2022/02/20 03:06:19;;;;;;;;;;;;;;;21.26;40.57;99958.09;4883442;29;4248;-63
2022/02/20 03:08:52;;;;;;;;;;;;;;;21.26;40.67;99958.09;4872233;29;4139;-63
2022/02/20 03:11:19;;;;;;;;;;;;;;;21.25;40.61;99950.88;4869692;29;4299;-64
2022/02/20 03:13:47;;;;;;;;;;;;;;;21.25;40.60;99948.00;4865700;29;4332;-63
2022/02/20 03:16:15;;;;;;;;;;;;;;;21.23;40.62;99953.69;4883649;29;4182;-64
2022/02/20 03:18:47;;;;;;;;;;;;;;;21.23;40.64;99959.44;4866586;29;5281;-63
2022/02/20 03:21:19;;;;;;;;;;;;;;;21.22;40.61;99960.88;4880447;29;4167;-63
2022/02/20 03:23:45;;;;;;;;;;;;;;;21.20;40.43;99965.84;4882903;29;4053;-63
2022/02/20 03:26:12;;;;;;;;;;;;;;;21.21;40.69;99959.41;4883390;29;4117;-64
2022/02/20 03:28:38;;;;;;;;;;;;;;;21.21;40.48;99973.81;4883135;29;5257;-63
2022/02/20 03:31:08;;;;;;;;;;;;;;;21.22;40.46;99972.38;4880794;29;4219;-64
2022/02/20 03:33:35;;;;;;;;;;;;;;;21.22;40.58;99966.63;4868626;29;4209;-64
2022/02/20 03:36:02;;;;;;;;;;;;;;;21.23;40.43;99964.47;4881411;29;4043;-63
2022/02/20 03:38:31;;;;;;;;;;;;;;;21.25;40.66;99973.16;4883860;29;5310;-64
2022/02/20 03:40:57;;;;;;;;;;;;;;;21.25;40.56;99978.94;4883119;29;4171;-63
2022/02/20 03:43:33;;;;;;;;;;;;;;;21.26;40.48;99975.38;4881472;29;4379;-63
2022/02/20 03:46:02;;;;;;;;;;;;;;;21.26;40.51;99981.16;4883503;29;4185;-63
2022/02/20 03:48:30;;;;;;;;;;;;;;;21.27;40.62;99976.13;4867350;29;4269;-63
2022/02/20 03:51:11;;;;;;;;;;;;;;;21.29;40.64;99968.25;4879554;29;4141;-64
2022/02/20 03:53:38;;;;;;;;;;;;;;;21.29;40.71;99968.25;4865053;29;4660;-63
2022/02/20 03:56:07;;;;;;;;;;;;;;;21.29;40.71;99965.38;4881963;29;4146;-64
2022/02/20 03:58:37;;;;;;;;;;;;;;;21.30;40.89;99974.75;4885112;29;4186;-63
2022/02/20 04:01:03;;;;;;;;;;;;;;;21.30;41.01;99966.88;4882447;29;4430;-63
2022/02/20 04:03:36;;;;;;;;;;;;;;;21.30;40.77;99974.75;4882761;29;4197;-63
2022/02/20 04:06:05;;;;;;;;;;;;;;;21.29;41.04;99974.03;4870298;29;4452;-64
2022/02/20 04:08:32;;;;;;;;;;;;;;;21.29;40.91;99971.13;4869991;29;4570;-64
2022/02/20 04:11:01;;;;;;;;;;;;;;;21.30;40.93;99977.63;4882188;29;4554;-63
2022/02/20 04:13:39;;;;;;;;;;;;;;;21.28;40.96;99969.69;4879059;29;4222;-63
2022/02/20 04:16:11;;;;;;;;;;;;;;;21.29;40.92;99979.06;4869934;29;4211;-63
2022/02/20 04:18:39;;;;;;;;;;;;;;;21.28;41.04;99978.31;4881053;29;4082;-63
2022/02/20 04:21:19;;;;;;;;;;;;;;;21.28;41.13;99983.31;4869681;29;4853;-64
2022/02/20 04:23:45;;;;;;;;;;;;;;;21.27;41.09;99987.63;4879662;29;4148;-63
2022/02/20 04:26:15;;;;;;;;;;;;;;;21.26;40.92;99992.66;4880895;29;4547;-64
2022/02/20 04:28:42;;;;;;;;;;;;;;;21.27;40.99;99988.34;4875700;29;6515;-62
2022/02/20 04:31:09;;;;;;;;;;;;;;;21.25;41.08;99994.06;4881913;29;4462;-63
2022/02/20 04:33:36;;;;;;;;;;;;;;;21.22;40.96;100000.44;4881913;29;4270;-63
2022/02/20 04:36:02;;;;;;;;;;;;;;;21.24;40.64;100003.38;4880255;29;5542;-63
2022/02/20 04:38:29;;;;;;;;;;;;;;;21.24;40.56;100006.25;4881826;29;4226;-63
2022/02/20 04:41:02;;;;;;;;;;;;;;;21.25;40.70;100008.44;4885874;29;4090;-63
2022/02/20 04:43:32;;;;;;;;;;;;;;;21.24;40.86;100001.22;4880471;29;4146;-63
2022/02/20 04:46:04;;;;;;;;;;;;;;;21.25;40.94;100019.97;4881331;29;4971;-63
2022/02/20 04:48:31;;;;;;;;;;;;;;;21.25;40.91;100002.69;4865759;29;5397;-63
2022/02/20 04:50:58;;;;;;;;;;;;;;;21.25;41.06;100008.44;4878743;29;4435;-63
2022/02/20 04:53:24;;;;;;;;;;;;;;;21.26;40.97;100015.69;4866618;29;4065;-63
2022/02/20 04:55:54;;;;;;;;;;;;;;;21.28;41.00;100021.50;4882226;29;4202;-63
2022/02/20 04:58:28;;;;;;;;;;;;;;;21.28;41.10;100021.50;4864375;29;4190;-63
2022/02/20 05:00:54;;;;;;;;;;;;;;;21.29;40.92;100020.09;4883328;29;4381;-63
2022/02/20 05:03:24;;;;;;;;;;;;;;;21.28;41.10;100018.63;4868441;29;5111;-63
2022/02/20 05:06:10;;;;;;;;;;;;;;;21.29;41.33;100022.97;4876861;29;4849;-62
2022/02/20 05:08:43;;;;;;;;;;;;;;;21.29;41.23;100025.84;4881109;29;4224;-63
2022/02/20 05:11:14;;;;;;;;;;;;;;;21.29;41.23;100020.09;4884717;29;5550;-64
2022/02/20 05:13:42;;;;;;;;;;;;;;;21.28;41.34;100024.41;4883761;29;4295;-63
2022/02/20 05:16:09;;;;;;;;;;;;;;;21.29;41.42;100037.38;4882507;29;4321;-63
2022/02/20 05:18:38;;;;;;;;;;;;;;;21.28;41.50;100035.91;4886904;29;4227;-63
2022/02/20 05:21:07;;;;;;;;;;;;;;;21.28;41.53;100029.41;4866899;29;4255;-63
2022/02/20 05:23:33;;;;;;;;;;;;;;;21.27;41.53;100028.66;4885319;29;4052;-63
2022/02/20 05:26:00;;;;;;;;;;;;;;;21.26;41.64;100041.59;4871689;29;4251;-63
2022/02/20 05:28:27;;;;;;;;;;;;;;;21.25;41.53;100048.75;4884947;29;4268;-63
2022/02/20 05:30:55;;;;;;;;;;;;;;;21.25;41.61;100054.53;4877049;29;4624;-63
2022/02/20 05:33:26;;;;;;;;;;;;;;;21.25;41.54;100048.03;4887634;29;4471;-63
2022/02/20 05:35:53;;;;;;;;;;;;;;;21.24;41.64;100058.81;4887238;29;4067;-63
2022/02/20 05:38:29;;;;;;;;;;;;;;;21.25;41.54;100066.03;4888737;29;4437;-63
2022/02/20 05:40:56;;;;;;;;;;;;;;;21.27;41.62;100063.22;4874340;29;5425;-63
2022/02/20 05:43:22;;;;;;;;;;;;;;;21.28;41.63;100061.06;4885143;29;4229;-63
2022/02/20 05:45:53;;;;;;;;;;;;;;;21.29;41.63;100071.19;4883625;29;4121;-63
2022/02/20 05:48:28;;;;;;;;;;;;;;;21.28;41.61;100079.09;4882961;29;4185;-63
2022/02/20 05:51:03;;;;;;;;;;;;;;;21.28;41.66;100076.22;4881392;29;4311;-63
2022/02/20 05:53:33;;;;;;;;;;;;;;;21.28;41.69;100076.22;4887171;29;4163;-63
2022/02/20 05:56:00;;;;;;;;;;;;;;;21.28;41.78;100089.88;4887017;29;4227;-63
2022/02/20 05:58:34;;;;;;;;;;;;;;;21.27;41.66;100109.28;4883888;29;4180;-63
2022/02/20 06:01:01;;;;;;;;;;;;;;;21.27;41.69;100100.66;4869451;29;4124;-63
2022/02/20 06:03:27;;;;;;;;;;;;;;;21.27;41.62;100115.06;4885202;29;4281;-63
2022/02/20 06:06:12;;;;;;;;;;;;;;;21.28;41.58;100104.25;4870320;29;4057;-63
2022/02/20 06:08:53;;;;;;;;;;;;;;;21.28;41.82;100116.53;4880822;29;4249;-63
2022/02/20 06:11:35;;;;;;;;;;;;;;;21.27;41.79;100108.56;4883393;29;4557;-63
2022/02/20 06:14:15;;;;;;;;;;;;;;;21.26;41.65;100113.59;4880487;29;4329;-64
2022/02/20 06:16:59;;;;;;;;;;;;;;;21.26;41.86;100125.09;4883791;29;4159;-63
2022/02/20 06:19:36;;;;;;;;;;;;;;;21.25;41.80;100123.63;4864498;29;4427;-63
2022/02/20 06:22:24;;;;;;;;;;;;;;;21.25;41.76;100132.25;4882596;29;4940;-63
2022/02/20 06:25:09;;;;;;;;;;;;;;;21.27;41.71;100138.09;4869732;29;4342;-63
2022/02/20 06:27:43;;;;;;;;;;;;;;;21.27;41.56;100155.38;4882420;29;4452;-63
2022/02/20 06:30:19;;;;;;;;;;;;;;;21.29;41.69;100157.56;4884953;29;4052;-63
2022/02/20 06:32:46;;;;;;;;;;;;;;;21.29;41.90;100158.31;4882612;29;4389;-63
2022/02/20 06:35:12;;;;;;;;;;;;;;;21.27;41.86;100166.88;4880002;29;4636;-63
2022/02/20 06:37:39;;;;;;;;;;;;;;;21.27;41.95;100169.75;4887070;29;5473;-63
2022/02/20 06:40:06;;;;;;;;;;;;;;;21.27;41.84;100178.41;4888117;29;4483;-63
2022/02/20 06:42:34;;;;;;;;;;;;;;;21.27;41.83;100171.91;4885715;29;4309;-63
2022/02/20 06:45:08;;;;;;;;;;;;;;;21.26;41.99;100176.94;4882705;29;4232;-63
2022/02/20 06:47:43;;;;;;;;;;;;;;;21.26;41.74;100185.56;4883570;29;4307;-62
2022/02/20 06:50:20;;;;;;;;;;;;;;;21.27;41.81;100183.44;4879200;29;4265;-62
2022/02/20 06:52:59;;;;;;;;;;;;;;;21.26;41.75;100188.47;4883182;29;4108;-63
2022/02/20 06:55:37;;;;;;;;;;;;;;;21.26;41.87;100197.09;4885187;29;4131;-63
2022/02/20 06:58:06;;;;;;;;;;;;;;;21.26;41.81;100202.13;4868282;29;4166;-63
2022/02/20 07:00:32;;;;;;;;;;;;;;;21.25;41.97;100201.38;4869604;29;4218;-63
2022/02/20 07:02:59;;;;;;;;;;;;;;;21.25;41.81;100209.28;4868580;29;5371;-63
2022/02/20 07:05:25;;;;;;;;;;;;;;;21.24;41.93;100225.81;4869943;29;4106;-63
2022/02/20 07:07:52;;;;;;;;;;;;;;;21.26;42.02;100231.66;4870489;29;4150;-63
2022/02/20 07:10:18;;;;;;;;;;;;;;;21.26;41.87;100237.41;4864052;29;4281;-64
2022/02/20 07:12:44;;;;;;;;;;;;;;;21.27;41.76;100233.09;4869266;29;4046;-63
2022/02/20 07:15:11;;;;;;;;;;;;;;;21.27;41.82;100247.50;4867738;29;4242;-63
2022/02/20 07:17:37;;;;;;;;;;;;;;;21.29;41.77;100238.22;4864742;29;4379;-63
2022/02/20 07:20:04;;;;;;;;;;;;;;;21.29;41.85;100238.94;4864022;29;4219;-63
2022/02/20 07:22:31;;;;;;;;;;;;;;;21.24;41.99;100237.34;4861569;29;4564;-63
2022/02/20 07:24:58;;;;;;;;;;;;;;;21.29;41.97;100250.47;4864860;29;4381;-63
2022/02/20 07:27:25;;;;;;;;;;;;;;;21.29;42.06;100255.47;4866684;29;5262;-63
2022/02/20 07:29:51;;;;;;;;;;;;;;;21.29;42.20;100267.72;4866393;29;4227;-63
2022/02/20 07:32:17;;;;;;;;;;;;;;;21.28;42.05;100263.38;4866510;29;4201;-63
2022/02/20 07:34:44;;;;;;;;;;;;;;;21.28;42.16;100274.91;4866148;29;4187;-63
2022/02/20 07:37:10;;;;;;;;;;;;;;;21.28;42.39;100277.78;4868992;29;5328;-63
2022/02/20 07:39:36;;;;;;;;;;;;;;;21.27;42.37;100273.41;4870542;29;5210;-63
2022/02/20 07:42:03;;;;;;;;;;;;;;;21.27;42.55;100284.22;4868075;29;4252;-63
2022/02/20 07:44:34;;;;;;;;;;;;;;;21.27;42.71;100284.22;4882492;29;4244;-63
2022/02/20 07:47:01;;;;;;;;;;;;;;;21.25;42.53;100281.25;4865219;29;4413;-63
2022/02/20 07:49:27;;;;;;;;;;;;;;;21.25;42.61;100290.63;4866561;29;4118;-63
2022/02/20 07:51:53;;;;;;;;;;;;;;;21.25;42.55;100273.34;4864646;29;4126;-63
2022/02/20 07:54:20;;;;;;;;;;;;;;;21.27;42.60;100287.09;4869993;29;5338;-64
2022/02/20 07:56:46;;;;;;;;;;;;;;;21.26;42.38;100280.59;4866758;29;4100;-63
2022/02/20 07:59:12;;;;;;;;;;;;;;;21.27;42.39;100284.22;4863892;29;4267;-63
2022/02/20 08:01:39;;;;;;;;;;;;;;;21.23;42.31;100281.91;4862223;29;4208;-63
2022/02/20 08:04:05;;;;;;;;;;;;;;;21.27;42.34;100293.56;4863959;29;4264;-63
2022/02/20 08:06:31;;;;;;;;;;;;;;;21.27;42.41;100287.81;4868689;29;4310;-63
2022/02/20 08:09:01;;;;;;;;;;;;;;;21.26;42.47;100297.88;4867858;29;4389;-63
2022/02/20 08:11:29;;;;;;;;;;;;;;;21.27;42.46;100298.59;4862027;29;4175;-62
2022/02/20 08:13:57;;;;;;;;;;;;;;;21.27;42.49;100299.34;4861642;29;5221;-63
2022/02/20 08:16:23;;;;;;;;;;;;;;;21.27;42.44;100316.63;4863154;29;4179;-63
2022/02/20 08:18:49;;;;;;;;;;;;;;;21.28;42.54;100311.59;4864640;29;4357;-63
2022/02/20 08:21:16;;;;;;;;;;;;;;;21.28;42.57;100311.59;4864172;29;5848;-64
2022/02/20 08:23:42;;;;;;;;;;;;;;;21.28;42.43;100312.34;4863667;29;4291;-63
2022/02/20 08:26:09;;;;;;;;;;;;;;;21.28;42.42;100309.47;4867531;29;4285;-63
2022/02/20 08:28:35;;;;;;;;;;;;;;;21.24;42.42;100297.81;4877420;29;4161;-63
2022/02/20 08:31:02;;;;;;;;;;;;;;;21.28;42.43;100312.34;4858636;29;4642;-63
2022/02/20 08:33:28;;;;;;;;;;;;;;;21.28;42.60;100306.59;4862310;29;4281;-63
2022/02/20 08:36:13;;;;;;;;;;;;;;;21.27;42.71;100316.63;4867556;29;4436;-63
2022/02/20 08:38:40;;;;;;;;;;;;;;;21.28;42.69;100312.34;4864753;29;4265;-63
2022/02/20 08:41:06;;;;;;;;;;;;;;;21.28;42.61;100318.09;4864289;29;4635;-63
2022/02/20 08:43:32;;;;;;;;;;;;;;;21.28;42.62;100311.59;4867537;29;4198;-63
2022/02/20 08:46:00;;;;;;;;;;;;;;;21.29;42.51;100321.72;4865496;29;4279;-63
2022/02/20 08:48:30;;;;;;;;;;;;;;;21.26;42.66;100323.78;4861834;29;4289;-63
2022/02/20 08:50:57;;;;;;;;;;;;;;;21.27;42.60;100325.25;4855902;29;4283;-63
2022/02/20 08:53:24;;;;;;;;;;;;;;;21.26;42.61;100335.31;4862788;29;4463;-63
2022/02/20 08:55:50;;;;;;;;;;;;;;;21.24;42.71;100341.00;4868053;29;4293;-63
2022/02/20 08:58:16;;;;;;;;;;;;;;;21.25;42.57;100336.69;4862822;29;5426;-65
2022/02/20 09:00:45;;;;;;;;;;;;;;;21.27;42.51;100338.91;4864627;29;4257;-63
2022/02/20 09:03:11;;;;;;;;;;;;;;;21.25;42.76;100339.56;4866394;29;4199;-63
2022/02/20 09:05:37;;;;;;;;;;;;;;;21.27;42.60;100345.41;4874116;29;4412;-63
2022/02/20 09:08:04;;;;;;;;;;;;;;;21.27;42.70;100348.28;4872764;29;4252;-63
2022/02/20 09:10:30;;;;;;;;;;;;;;;21.26;42.84;100352.59;4875010;29;4661;-63
2022/02/20 09:12:57;;;;;;;;;;;;;;;21.29;43.01;100341.88;4872740;29;4071;-63
2022/02/20 09:15:23;;;;;;;;;;;;;;;21.34;42.85;100337.72;4870183;29;4365;-65
2022/02/20 09:17:50;;;;;;;;;;;;;;;21.31;43.08;100351.31;4874596;29;4313;-62
2022/02/20 09:20:17;;;;;;;;;;;;;;;21.14;41.70;100340.63;4873609;29;4323;-65
2022/02/20 09:22:43;;;;;;;;;;;;;;;21.21;42.17;100332.94;4866774;29;4735;-63
2022/02/20 09:25:10;;;;;;;;;;;;;;;21.24;42.01;100335.25;4871380;29;4344;-64
2022/02/20 09:27:36;;;;;;;;;;;;;;;21.25;41.90;100325.19;4872135;29;4235;-63
2022/02/20 09:30:03;;;;;;;;;;;;;;;21.27;41.79;100331.00;4872704;29;4611;-63
2022/02/20 09:32:29;;;;;;;;;;;;;;;21.28;41.99;100323.88;4871583;29;4649;-63
2022/02/20 09:34:56;;;;;;;;;;;;;;;21.28;42.41;100323.88;4871079;29;4270;-63
2022/02/20 09:37:23;;;;;;;;;;;;;;;21.29;42.26;100313.81;4874567;29;5416;-63
2022/02/20 09:39:49;;;;;;;;;;;;;;;21.30;42.33;100321.06;4872927;29;4667;-62
2022/02/20 09:42:16;;;;;;;;;;;;;;;21.29;42.35;100319.56;4871640;29;4522;-65
2022/02/20 09:44:43;;;;;;;;;;;;;;;21.09;41.11;100316.00;4872147;29;4279;-66
2022/02/20 09:47:10;;;;;;;;;;;;;;;21.17;41.73;100313.41;4869422;29;4111;-63
2022/02/20 09:49:38;;;;;;;;;;;;;;;21.30;41.77;100314.53;4865868;29;5525;-62
2022/02/20 09:52:04;;;;;;;;;;;;;;;21.31;41.85;100319.63;4874075;29;4290;-63
2022/02/20 09:54:30;;;;;;;;;;;;;;;21.33;41.69;100307.47;4875012;29;4261;-63
2022/02/20 09:56:57;;;;;;;;;;;;;;;21.33;41.73;100322.59;4873796;29;4214;-63
2022/02/20 09:59:23;;;;;;;;;;;;;;;21.34;41.71;100321.16;4873236;29;5385;-62
2022/02/20 10:02:00;;;;;;;;;;;;;;;21.34;41.92;100308.91;4872925;29;5602;-63
2022/02/20 10:04:47;;;;;;;;;;;;;;;21.34;41.76;100309.66;4873214;29;4579;-63
2022/02/20 10:07:33;;;;;;;;;;;;;;;21.36;41.86;100305.38;4875161;29;5488;-63
2022/02/20 10:10:04;;;;;;;;;;;;;;;21.36;42.03;100302.50;4878087;29;3999;-62
2022/02/20 10:12:30;;;;;;;;;;;;;;;21.36;42.03;100311.88;4875717;29;5452;-61
2022/02/20 10:14:56;;;;;;;;;;;;;;;21.36;42.23;100299.63;4872836;29;4513;-62
2022/02/20 10:17:25;;;;;;;;;;;;;;;21.36;42.24;100296.75;4871622;29;4566;-63
2022/02/20 10:20:10;;;;;;;;;;;;;;;21.36;42.25;100294.59;4869978;29;5353;-63
2022/02/20 10:23:12;;;;;;;;;;;;;;;21.37;42.33;100298.19;4868603;29;4233;-65
2022/02/20 10:26:35;;;;;;;;;;;;;;;21.31;42.44;100287.97;4872029;29;4028;-63
2022/02/20 10:29:40;;;;;;;;;;;;;;;21.44;42.55;100291.25;4869612;29;4281;-62
2022/02/20 10:32:07;;;;;;;;;;;;;;;21.44;42.87;100288.38;4884642;29;4148;-62
2022/02/20 10:34:33;;;;;;;;;;;;;;;21.46;42.51;100279.81;4866055;29;4250;-61
2022/02/20 10:37:03;;;;;;;;;;;;;;;21.45;42.51;100261.78;4869266;29;4280;-62
2022/02/20 10:39:31;;;;;;;;;;;;;;;21.46;42.47;100257.53;4885255;29;4224;-69
2022/02/20 10:41:59;;;;;;;;;;;;;;;21.07;40.88;100253.34;4872483;29;4045;-60
2022/02/20 10:44:25;;;;;;;;;;;;;;;21.05;40.85;100243.88;4871288;29;4230;-64
2022/02/20 10:47:08;;;;;;;;;;;;;;;21.13;40.50;100241.28;4872493;29;4070;-62
2022/02/20 10:49:35;;;;;;;;;;;;;;;21.18;40.31;100236.41;4872712;29;4565;-63
2022/02/20 10:52:01;;;;;;;;;;;;;;;21.22;40.78;100222.88;4872889;29;4426;-65
2022/02/20 10:54:28;;;;;;;;;;;;;;;21.23;41.07;100217.84;4871344;29;4046;-63
2022/02/20 10:56:54;;;;;;;;;;;;;;;21.24;41.12;100213.56;4872644;29;4152;-64
2022/02/20 10:59:21;;;;;;;;;;;;;;;21.24;41.03;100217.19;4872801;29;6365;-63
2022/02/20 11:01:49;;;;;;;;;;;;;;;21.24;41.58;100202.78;4871549;29;4226;-63
2022/02/20 11:04:15;;;;;;;;;;;;;;;21.25;41.79;100197.75;4870821;29;4268;-63
2022/02/20 11:06:44;;;;;;;;;;;;;;;21.24;42.00;100191.25;4874520;29;4257;-63
2022/02/20 11:09:11;;;;;;;;;;;;;;;21.24;41.85;100179.03;4872609;29;5327;-63
2022/02/20 11:11:39;;;;;;;;;;;;;;;21.24;42.06;100174.00;4872142;29;4091;-63
2022/02/20 11:14:07;;;;;;;;;;;;;;;21.23;42.39;100172.50;4872120;29;4110;-63
2022/02/20 11:16:33;;;;;;;;;;;;;;;21.23;42.57;100160.97;4871392;29;4200;-63
2022/02/20 11:19:00;;;;;;;;;;;;;;;21.22;42.66;100153.78;4873869;29;4297;-63
2022/02/20 11:21:26;;;;;;;;;;;;;;;21.22;42.99;100156.66;4870749;29;4220;-63
2022/02/20 11:23:54;;;;;;;;;;;;;;;21.22;43.06;100153.78;4884772;29;4266;-63
2022/02/20 11:26:20;;;;;;;;;;;;;;;21.22;43.18;100148.00;4885428;29;4189;-63
2022/02/20 11:28:48;;;;;;;;;;;;;;;21.22;43.32;100144.41;4870106;29;4270;-62
2022/02/20 11:31:16;;;;;;;;;;;;;;;21.25;43.46;100135.13;4862824;29;4186;-60
2022/02/20 11:33:42;;;;;;;;;;;;;;;21.28;43.62;100133.81;4867174;29;4412;-64
2022/02/20 11:36:09;;;;;;;;;;;;;;;21.27;44.17;100131.59;4883218;29;4188;-64
2022/02/20 11:38:35;;;;;;;;;;;;;;;21.25;44.29;100123.63;4886442;29;5490;-63
2022/02/20 11:41:02;;;;;;;;;;;;;;;21.24;44.61;100139.44;4871543;29;4101;-62
2022/02/20 11:43:45;;;;;;;;;;;;;;;21.25;44.89;100117.13;4884778;29;4207;-61
2022/02/20 11:46:14;;;;;;;;;;;;;;;21.28;45.31;100105.00;4869848;29;4193;-61
2022/02/20 11:49:19;;;;;;;;;;;;;;;21.28;45.06;100104.25;4872398;29;4117;-61
2022/02/20 11:52:02;;;;;;;;;;;;;;;21.24;44.95;100099.13;4869238;29;4182;-61
2022/02/20 11:54:29;;;;;;;;;;;;;;;21.25;45.29;100094.09;4870968;29;4313;-61
2022/02/20 11:57:23;;;;;;;;;;;;;;;21.33;45.94;100089.31;4871167;29;5286;-60
2022/02/20 12:00:06;;;;;;;;;;;;;;;21.32;45.32;100087.13;4871550;29;4163;-59
2022/02/20 12:02:57;;;;;;;;;;;;;;;21.32;45.46;100081.34;4864060;29;4668;-60
2022/02/20 12:05:23;;;;;;;;;;;;;;;21.28;45.44;100064.72;4868878;29;5299;-60
2022/02/20 12:07:50;;;;;;;;;;;;;;;21.34;45.44;100067.75;4863993;29;6365;-61
2022/02/20 12:10:28;;;;;;;;;;;;;;;21.37;45.54;100062.06;4863908;29;5360;-60
2022/02/20 12:12:55;;;;;;;;;;;;;;;21.36;45.39;100063.47;4871841;29;4228;-60
2022/02/20 12:15:25;;;;;;;;;;;;;;;21.40;45.68;100052.06;4866873;29;4267;-60
2022/02/20 12:18:00;;;;;;;;;;;;;;;21.34;45.41;100047.59;4871823;29;4200;-60
2022/02/20 12:20:49;;;;;;;;;;;;;;;21.36;45.01;100034.69;4865081;29;4137;-60
2022/02/20 12:23:28;;;;;;;;;;;;;;;21.32;45.53;100024.50;4866999;29;4345;-60
2022/02/20 12:25:55;;;;;;;;;;;;;;;21.31;45.24;100002.16;4865095;29;4112;-59
2022/02/20 12:28:31;;;;;;;;;;;;;;;21.31;45.05;100002.88;4863439;29;4168;-60
2022/02/20 12:30:57;;;;;;;;;;;;;;;21.30;45.02;99998.53;4867474;29;4112;-59
2022/02/20 12:33:30;;;;;;;;;;;;;;;21.31;45.06;99994.25;4862205;29;4247;-59
2022/02/20 12:35:57;;;;;;;;;;;;;;;21.31;45.04;99990.63;4865705;29;4240;-59
2022/02/20 12:38:24;;;;;;;;;;;;;;;21.31;44.99;99988.47;4860628;29;4204;-59
2022/02/20 12:40:52;;;;;;;;;;;;;;;21.31;44.97;99971.19;4863329;29;4485;-59
2022/02/20 12:43:20;;;;;;;;;;;;;;;21.32;44.65;99964.03;4858299;29;4216;-59
2022/02/20 12:45:47;;;;;;;;;;;;;;;21.30;44.72;99958.22;4862142;29;4153;-60
2022/02/20 12:48:17;;;;;;;;;;;;;;;21.31;44.86;99953.94;4879182;29;4348;-59
2022/02/20 12:50:44;;;;;;;;;;;;;;;21.32;44.84;99948.91;4865277;29;4082;-59
2022/02/20 12:53:11;;;;;;;;;;;;;;;21.33;44.72;99951.09;4864480;29;4222;-60
2022/02/20 12:55:38;;;;;;;;;;;;;;;21.33;44.82;99938.84;4864156;29;5457;-59
2022/02/20 12:58:05;;;;;;;;;;;;;;;21.32;44.69;99923.72;4866758;29;4482;-60
2022/02/20 13:00:32;;;;;;;;;;;;;;;21.31;44.57;99918.66;4870840;29;4354;-59
2022/02/20 13:02:58;;;;;;;;;;;;;;;21.27;44.66;99919.25;4869400;29;4481;-60